createdAt,value
2023-02-12T00:01:17.456Z,83.74
2023-02-12T00:03:44.172Z,83.22
2023-02-12T00:06:14.820Z,82.77
2023-02-12T00:08:43.409Z,82.60
2023-02-12T00:11:13.469Z,82.91
2023-02-12T00:13:41.409Z,83.11
2023-02-12T00:16:10.542Z,82.78
2023-02-12T00:18:37.461Z,83.21
2023-02-12T00:21:05.310Z,83.17
2023-02-12T00:23:32.126Z,83.15
2023-02-12T00:25:59.191Z,82.98
2023-02-12T00:28:26.806Z,83.15
2023-02-12T00:30:55.171Z,83.37
2023-02-12T00:33:21.918Z,83.53
2023-02-12T00:35:57.829Z,83.80
2023-02-12T00:38:24.832Z,83.88
2023-02-12T00:40:51.817Z,84.18
2023-02-12T00:43:19.434Z,83.99
2023-02-12T00:45:46.810Z,83.53
2023-02-12T00:48:14.873Z,83.49
2023-02-12T00:50:45.209Z,83.52
2023-02-12T00:53:12.396Z,83.81
2023-02-12T00:55:39.507Z,83.60
2023-02-12T00:58:07.783Z,83.74
2023-02-12T01:00:35.780Z,83.94
2023-02-12T01:03:04.950Z,83.99
2023-02-12T01:05:34.685Z,83.71
2023-02-12T01:08:03.669Z,83.74
2023-02-12T01:10:31.018Z,83.66
2023-02-12T01:12:58.114Z,83.59
2023-02-12T01:15:26.409Z,83.46
2023-02-12T01:17:53.507Z,83.56
2023-02-12T01:20:22.494Z,83.58
2023-02-12T01:22:49.689Z,83.50
2023-02-12T01:25:20.096Z,83.49
2023-02-12T01:27:47.224Z,83.59
2023-02-12T01:30:15.660Z,83.75
2023-02-12T01:32:43.456Z,83.50
2023-02-12T01:35:11.347Z,83.54
2023-02-12T01:37:40.888Z,83.52
2023-02-12T01:40:09.094Z,83.41
2023-02-12T01:42:35.850Z,83.53
2023-02-12T01:45:32.357Z,83.39
2023-02-12T01:47:59.895Z,83.25
2023-02-12T01:50:26.633Z,83.27
2023-02-12T01:52:57.277Z,83.00
2023-02-12T01:55:24.317Z,82.58
2023-02-12T01:57:51.523Z,82.79
2023-02-12T02:00:22.541Z,82.72
2023-02-12T02:02:56.022Z,82.87
2023-02-12T02:05:43.551Z,82.79
2023-02-12T02:08:12.239Z,82.78
2023-02-12T02:10:38.842Z,82.87
2023-02-12T02:13:24.254Z,82.49
2023-02-12T02:15:56.988Z,82.49
2023-02-12T02:18:55.377Z,82.19
2023-02-12T02:21:50.120Z,81.95
2023-02-12T02:24:32.883Z,82.12
2023-02-12T02:27:18.307Z,82.16
2023-02-12T02:30:09.994Z,82.16
2023-02-12T02:33:15.390Z,82.10
2023-02-12T02:36:08.671Z,82.14
2023-02-12T02:38:51.395Z,82.32
2023-02-12T02:41:30.671Z,82.27
2023-02-12T02:43:59.295Z,82.37
2023-02-12T02:46:40.136Z,82.32
2023-02-12T02:49:13.124Z,82.38
2023-02-12T02:51:45.424Z,82.48
2023-02-12T02:54:17.794Z,82.40
2023-02-12T02:56:47.814Z,82.56
2023-02-12T02:59:21.449Z,82.47
2023-02-12T03:01:57.531Z,82.45
2023-02-12T03:04:32.983Z,82.44
2023-02-12T03:07:09.462Z,82.35
2023-02-12T03:09:59.569Z,82.52
2023-02-12T03:12:36.541Z,82.47
2023-02-12T03:15:09.804Z,82.48
2023-02-12T03:17:44.929Z,82.57
2023-02-12T03:20:22.296Z,82.55
2023-02-12T03:22:55.335Z,82.60
2023-02-12T03:25:33.975Z,82.79
2023-02-12T03:28:08.354Z,82.68
2023-02-12T03:31:17.029Z,82.62
2023-02-12T03:33:50.543Z,82.54
2023-02-12T03:36:33.906Z,82.33
2023-02-12T03:39:11.644Z,82.47
2023-02-12T03:41:46.574Z,82.55
2023-02-12T03:44:45.893Z,82.49
2023-02-12T03:47:44.273Z,82.70
2023-02-12T03:50:15.921Z,82.79
2023-02-12T03:52:43.386Z,82.73
2023-02-12T03:55:12.748Z,82.72
2023-02-12T03:57:47.499Z,82.90
2023-02-12T04:00:22.249Z,82.86
2023-02-12T04:02:52.196Z,82.74
2023-02-12T04:05:27.172Z,82.47
2023-02-12T04:07:57.071Z,82.44
2023-02-12T04:11:04.060Z,82.43
2023-02-12T04:13:57.159Z,82.31
2023-02-12T04:16:37.608Z,82.08
2023-02-12T04:19:05.418Z,82.01
2023-02-12T04:22:03.624Z,81.83
2023-02-12T04:24:56.347Z,82.02
2023-02-12T04:27:41.130Z,82.09
2023-02-12T04:30:14.198Z,81.98
2023-02-12T04:32:46.370Z,81.63
2023-02-12T04:35:20.889Z,81.60
2023-02-12T04:38:08.359Z,81.61
2023-02-12T04:40:38.177Z,81.48
2023-02-12T04:43:05.347Z,81.15
2023-02-12T04:45:34.985Z,80.92
2023-02-12T04:48:02.326Z,81.24
2023-02-12T04:50:41.843Z,81.06
2023-02-12T04:53:09.903Z,80.93
2023-02-12T04:55:36.923Z,80.81
2023-02-12T04:58:04.477Z,80.88
2023-02-12T05:00:36.596Z,80.98
2023-02-12T05:03:03.489Z,80.99
2023-02-12T05:05:30.216Z,81.16
2023-02-12T05:07:57.099Z,81.11
2023-02-12T05:10:24.311Z,81.04
2023-02-12T05:12:54.990Z,80.95
2023-02-12T05:15:22.481Z,80.61
2023-02-12T05:17:49.432Z,80.24
2023-02-12T05:20:16.327Z,80.12
2023-02-12T05:22:42.968Z,80.25
2023-02-12T05:25:09.847Z,80.33
2023-02-12T05:27:36.644Z,80.52
2023-02-12T05:30:05.466Z,80.57
2023-02-12T05:32:32.334Z,80.40
2023-02-12T05:34:58.898Z,80.37
2023-02-12T05:37:25.821Z,80.62
2023-02-12T05:39:53.260Z,80.78
2023-02-12T05:42:19.826Z,80.62
2023-02-12T05:44:46.497Z,80.62
2023-02-12T05:47:13.955Z,80.76
2023-02-12T05:49:42.249Z,80.98
2023-02-12T05:52:09.087Z,81.00
2023-02-12T05:54:35.865Z,80.85
2023-02-12T05:57:02.722Z,80.66
2023-02-12T05:59:29.692Z,80.55
2023-02-12T06:01:56.360Z,80.40
2023-02-12T06:04:25.727Z,80.35
2023-02-12T06:06:53.701Z,80.71
2023-02-12T06:09:21.137Z,80.77
2023-02-12T06:11:47.928Z,80.83
2023-02-12T06:14:18.363Z,80.87
2023-02-12T06:16:51.310Z,80.93
2023-02-12T06:19:19.536Z,81.19
2023-02-12T06:21:46.878Z,81.01
2023-02-12T06:24:15.690Z,81.05
2023-02-12T06:26:42.686Z,80.73
2023-02-12T06:29:09.264Z,80.44
2023-02-12T06:31:37.106Z,80.73
2023-02-12T06:34:08.033Z,80.63
2023-02-12T06:36:38.339Z,80.23
2023-02-12T06:39:05.330Z,80.19
2023-02-12T06:41:32.235Z,78.74
2023-02-12T06:43:59.197Z,78.64
2023-02-12T06:46:26.218Z,78.94
2023-02-12T06:48:58.746Z,79.08
2023-02-12T06:51:27.171Z,79.59
2023-02-12T06:53:55.022Z,79.35
2023-02-12T06:56:23.852Z,78.98
2023-02-12T06:59:00.664Z,78.62
2023-02-12T07:01:29.558Z,79.25
2023-02-12T07:03:59.144Z,79.42
2023-02-12T07:06:28.189Z,79.41
2023-02-12T07:08:56.470Z,79.22
2023-02-12T07:11:28.567Z,79.22
2023-02-12T07:13:55.527Z,79.30
2023-02-12T07:16:22.896Z,79.69
2023-02-12T07:18:49.799Z,79.43
2023-02-12T07:21:17.945Z,79.53
2023-02-12T07:23:51.309Z,79.44
2023-02-12T07:26:19.497Z,79.24
2023-02-12T07:28:46.285Z,79.38
2023-02-12T07:31:15.682Z,78.39
2023-02-12T07:33:43.641Z,77.70
2023-02-12T07:36:16.637Z,77.89
2023-02-12T07:38:44.009Z,77.38
2023-02-12T07:41:19.855Z,76.16
2023-02-12T07:43:50.095Z,75.50
2023-02-12T07:46:40.075Z,75.52
2023-02-12T07:49:10.245Z,75.21
2023-02-12T07:51:37.550Z,75.61
2023-02-12T07:54:04.397Z,75.76
2023-02-12T07:56:34.693Z,76.12
2023-02-12T07:59:11.986Z,76.34
2023-02-12T08:01:46.119Z,76.01
2023-02-12T08:04:14.907Z,75.81
2023-02-12T08:06:43.979Z,75.38
2023-02-12T08:09:14.287Z,75.14
2023-02-12T08:11:42.880Z,74.69
2023-02-12T08:14:15.311Z,75.24
2023-02-12T08:16:44.616Z,75.15
2023-02-12T08:19:19.470Z,74.58
2023-02-12T08:21:52.439Z,74.25
2023-02-12T08:24:21.682Z,75.48
2023-02-12T08:26:48.448Z,74.60
2023-02-12T08:29:27.394Z,74.19
2023-02-12T08:31:57.399Z,74.50
2023-02-12T08:34:29.541Z,74.53
2023-02-12T08:36:57.489Z,74.61
2023-02-12T08:39:25.855Z,73.01
2023-02-12T08:41:56.993Z,72.22
2023-02-12T08:44:23.955Z,74.59
2023-02-12T08:46:52.198Z,72.58
2023-02-12T08:49:25.392Z,74.11
2023-02-12T08:51:54.879Z,73.20
2023-02-12T08:54:24.536Z,73.79
2023-02-12T08:56:56.238Z,75.66
2023-02-12T08:59:22.878Z,75.99
2023-02-12T09:01:51.715Z,73.31
2023-02-12T09:04:24.390Z,70.61
2023-02-12T09:06:52.062Z,69.93
2023-02-12T09:09:19.188Z,70.66
2023-02-12T09:11:46.875Z,70.98
2023-02-12T09:14:15.680Z,70.32
2023-02-12T09:16:42.473Z,69.57
2023-02-12T09:19:12.442Z,72.07
2023-02-12T09:21:39.414Z,70.78
2023-02-12T09:24:06.516Z,70.85
2023-02-12T09:26:33.333Z,71.39
2023-02-12T09:29:02.305Z,70.42
2023-02-12T09:31:31.526Z,71.35
2023-02-12T09:34:04.395Z,71.12
2023-02-12T09:36:32.192Z,68.75
2023-02-12T09:38:59.783Z,69.09
2023-02-12T09:41:47.828Z,70.32
2023-02-12T09:44:26.096Z,71.37
2023-02-12T09:47:05.090Z,71.66
2023-02-12T09:49:52.017Z,70.51
2023-02-12T09:52:24.014Z,69.94
2023-02-12T09:54:50.835Z,68.92
2023-02-12T09:57:21.743Z,69.53
2023-02-12T09:59:57.900Z,69.55
2023-02-12T10:02:24.981Z,70.09
2023-02-12T10:05:01.235Z,70.56
2023-02-12T10:08:01.126Z,70.53
2023-02-12T10:10:33.763Z,71.25
2023-02-12T10:13:08.487Z,70.40
2023-02-12T10:16:01.083Z,69.08
2023-02-12T10:18:47.006Z,70.25
2023-02-12T10:21:33.188Z,70.51
2023-02-12T10:23:59.967Z,70.80
2023-02-12T10:26:36.042Z,70.34
2023-02-12T10:29:21.614Z,71.20
2023-02-12T10:31:53.984Z,71.46
2023-02-12T10:34:26.355Z,71.78
2023-02-12T10:37:01.258Z,72.15
2023-02-12T10:40:36.101Z,71.20
2023-02-12T10:43:02.833Z,71.30
2023-02-12T10:45:35.801Z,72.05
2023-02-12T10:48:26.821Z,70.96
2023-02-12T10:51:09.166Z,71.48
2023-02-12T10:53:37.312Z,71.35
2023-02-12T10:56:19.633Z,72.33
2023-02-12T10:58:49.355Z,72.21
2023-02-12T11:01:39.063Z,72.24
2023-02-12T11:04:29.705Z,72.77
2023-02-12T11:07:03.302Z,72.22
2023-02-12T11:09:44.881Z,72.35
2023-02-12T11:12:32.820Z,72.85
2023-02-12T11:15:03.760Z,71.73
2023-02-12T11:17:37.371Z,72.44
2023-02-12T11:20:15.490Z,71.58
2023-02-12T11:23:05.855Z,71.23
2023-02-12T11:25:37.441Z,71.53
2023-02-12T11:28:12.723Z,71.13
2023-02-12T11:30:52.898Z,71.66
2023-02-12T11:33:25.869Z,71.52
2023-02-12T11:36:00.428Z,71.51
2023-02-12T11:38:31.787Z,71.89
2023-02-12T11:41:30.429Z,72.25
2023-02-12T11:43:57.470Z,71.27
2023-02-12T11:46:26.334Z,71.57
2023-02-12T11:48:56.158Z,71.08
2023-02-12T11:51:29.673Z,70.77
2023-02-12T11:54:02.395Z,71.08
2023-02-12T11:56:49.478Z,71.09
2023-02-12T11:59:27.286Z,71.58
2023-02-12T12:01:58.552Z,71.86
2023-02-12T12:04:31.237Z,69.22
2023-02-12T12:07:02.282Z,68.82
2023-02-12T12:09:47.040Z,69.83
2023-02-12T12:12:29.065Z,70.79
2023-02-12T12:16:00.890Z,70.49
2023-02-12T12:18:55.176Z,69.24
2023-02-12T12:21:57.390Z,69.18
2023-02-12T12:24:52.511Z,70.53
2023-02-12T12:27:54.367Z,69.72
2023-02-12T12:30:50.684Z,69.95
2023-02-12T12:33:40.764Z,69.59
2023-02-12T12:36:13.633Z,70.00
2023-02-12T12:38:51.344Z,70.07
2023-02-12T12:41:38.957Z,70.38
2023-02-12T12:44:14.719Z,69.48
2023-02-12T12:46:47.665Z,69.46
2023-02-12T12:49:35.723Z,68.73
2023-02-12T12:52:08.524Z,69.50
2023-02-12T12:54:45.167Z,70.04
2023-02-12T12:57:25.616Z,70.38
2023-02-12T13:00:15.632Z,69.86
2023-02-12T13:02:51.377Z,70.52
2023-02-12T13:05:40.179Z,70.52
2023-02-12T13:08:12.993Z,69.44
2023-02-12T13:10:55.837Z,69.76
2023-02-12T13:13:33.544Z,70.33
2023-02-12T13:16:25.777Z,69.69
2023-02-12T13:19:29.482Z,71.01
2023-02-12T13:22:10.384Z,71.43
2023-02-12T13:25:09.785Z,68.92
2023-02-12T13:27:40.283Z,69.46
2023-02-12T13:30:38.207Z,69.24
2023-02-12T13:33:22.034Z,69.38
2023-02-12T13:35:55.640Z,69.60
2023-02-12T13:38:28.046Z,69.85
2023-02-12T13:41:01.657Z,69.85
2023-02-12T13:43:39.069Z,70.23
2023-02-12T13:46:14.805Z,70.51
2023-02-12T13:48:49.829Z,69.63
2023-02-12T13:51:45.060Z,69.93
2023-02-12T13:54:30.256Z,69.90
2023-02-12T13:57:02.128Z,69.81
2023-02-12T13:59:31.950Z,69.97
2023-02-12T14:02:01.640Z,69.65
2023-02-12T14:04:45.311Z,69.60
2023-02-12T14:07:14.595Z,69.39
2023-02-12T14:09:44.953Z,69.93
2023-02-12T14:12:25.488Z,70.23
2023-02-12T14:15:10.242Z,70.38
2023-02-12T14:17:37.222Z,70.71
2023-02-12T14:20:30.120Z,70.76
2023-02-12T14:23:00.605Z,70.56
2023-02-12T14:25:38.131Z,70.43
2023-02-12T14:28:27.154Z,70.54
2023-02-12T14:31:16.203Z,70.61
2023-02-12T14:33:43.917Z,70.74
2023-02-12T14:36:38.517Z,70.79
2023-02-12T14:39:29.694Z,70.63
2023-02-12T14:42:08.931Z,70.71
2023-02-12T14:44:35.724Z,71.09
2023-02-12T14:47:14.516Z,70.89
2023-02-12T14:49:48.632Z,70.91
2023-02-12T14:52:41.373Z,71.00
2023-02-12T14:55:39.742Z,71.30
2023-02-12T14:58:20.193Z,71.52
2023-02-12T15:00:50.641Z,71.69
2023-02-12T15:03:24.126Z,71.71
2023-02-12T15:05:59.212Z,71.91
2023-02-12T15:08:48.856Z,72.09
2023-02-12T15:11:29.073Z,72.26
2023-02-12T15:14:26.728Z,72.52
2023-02-12T15:16:59.961Z,72.90
2023-02-12T15:19:26.651Z,73.05
2023-02-12T15:21:54.349Z,73.30
2023-02-12T15:24:25.805Z,73.44
2023-02-12T15:26:58.438Z,73.68
2023-02-12T15:29:48.607Z,73.88
2023-02-12T15:32:23.535Z,74.02
2023-02-12T15:34:53.972Z,74.32
2023-02-12T15:37:27.045Z,74.46
2023-02-12T15:40:01.638Z,74.64
2023-02-12T15:42:35.706Z,74.85
2023-02-12T15:45:07.848Z,75.04
2023-02-12T15:47:35.191Z,75.31
2023-02-12T15:50:02.588Z,75.47
2023-02-12T15:52:39.340Z,75.60
2023-02-12T15:55:16.273Z,75.76
2023-02-12T15:57:51.480Z,75.94
2023-02-12T16:00:47.393Z,76.05
2023-02-12T16:03:32.966Z,76.23
2023-02-12T16:06:05.765Z,76.33
2023-02-12T16:08:33.834Z,76.48
2023-02-12T16:11:13.161Z,76.59
2023-02-12T16:13:48.149Z,76.74
2023-02-12T16:16:45.123Z,76.87
2023-02-12T16:19:23.512Z,77.01
2023-02-12T16:22:07.957Z,77.13
2023-02-12T16:24:38.408Z,77.27
2023-02-12T16:27:31.094Z,77.37
2023-02-12T16:30:01.729Z,77.56
2023-02-12T16:32:38.876Z,77.75
2023-02-12T16:35:11.669Z,77.91
2023-02-12T16:37:38.383Z,78.05
2023-02-12T16:40:17.297Z,78.20
2023-02-12T16:42:47.174Z,78.31
2023-02-12T16:45:26.955Z,78.47
2023-02-12T16:47:58.791Z,78.70
2023-02-12T16:50:33.705Z,78.72
2023-02-12T16:53:06.226Z,78.89
2023-02-12T16:55:32.846Z,79.13
2023-02-12T16:58:08.306Z,79.42
2023-02-12T17:00:35.244Z,79.42
2023-02-12T17:03:01.794Z,79.47
2023-02-12T17:05:28.855Z,79.59
2023-02-12T17:07:55.614Z,79.69
2023-02-12T17:10:22.235Z,79.80
2023-02-12T17:12:51.687Z,79.85
2023-02-12T17:15:24.228Z,80.11
2023-02-12T17:17:53.832Z,80.27
2023-02-12T17:20:23.136Z,80.49
2023-02-12T17:22:57.038Z,80.56
2023-02-12T17:25:24.897Z,80.53
2023-02-12T17:27:51.735Z,80.60
2023-02-12T17:30:23.852Z,80.73
2023-02-12T17:32:51.463Z,80.97
2023-02-12T17:35:18.699Z,81.06
2023-02-12T17:37:47.489Z,81.16
2023-02-12T17:40:14.370Z,81.40
2023-02-12T17:42:41.439Z,81.50
2023-02-12T17:45:09.587Z,81.64
2023-02-12T17:47:39.272Z,81.57
2023-02-12T17:50:13.088Z,81.58
2023-02-12T17:52:40.147Z,81.59
2023-02-12T17:55:11.024Z,81.71
2023-02-12T17:57:39.070Z,81.91
2023-02-12T18:00:08.252Z,82.18
2023-02-12T18:02:37.952Z,82.27
2023-02-12T18:05:05.141Z,83.02
2023-02-12T18:07:33.875Z,83.11
2023-02-12T18:10:00.685Z,83.43
2023-02-12T18:12:27.590Z,83.51
2023-02-12T18:14:58.930Z,83.51
2023-02-12T18:17:25.794Z,83.56
2023-02-12T18:19:53.026Z,83.61
2023-02-12T18:22:20.754Z,83.56
2023-02-12T18:24:47.724Z,83.66
2023-02-12T18:27:15.301Z,83.68
2023-02-12T18:29:42.224Z,83.83
2023-02-12T18:32:13.895Z,84.07
2023-02-12T18:34:41.465Z,84.17
2023-02-12T18:37:09.633Z,84.24
2023-02-12T18:39:36.291Z,84.45
2023-02-12T18:42:04.105Z,84.35
2023-02-12T18:44:31.661Z,84.31
2023-02-12T18:46:59.464Z,84.41
2023-02-12T18:49:27.656Z,84.55
2023-02-12T18:51:54.689Z,84.32
2023-02-12T18:54:21.736Z,84.37
2023-02-12T18:56:52.113Z,84.45
2023-02-12T18:59:20.353Z,84.31
2023-02-12T19:01:50.005Z,84.28
2023-02-12T19:04:18.793Z,84.25
2023-02-12T19:06:48.733Z,84.25
2023-02-12T19:09:18.681Z,84.20
2023-02-12T19:11:47.479Z,84.33
2023-02-12T19:14:16.740Z,84.36
2023-02-12T19:16:47.477Z,84.44
2023-02-12T19:19:15.649Z,84.59
2023-02-12T19:21:42.490Z,84.68
2023-02-12T19:24:11.832Z,84.76
2023-02-12T19:26:39.407Z,84.77
2023-02-12T19:29:07.310Z,84.67
2023-02-12T19:31:40.436Z,84.66
2023-02-12T19:34:15.380Z,84.64
2023-02-12T19:36:43.861Z,84.62
2023-02-12T19:39:14.569Z,84.82
2023-02-12T19:41:42.871Z,85.14
2023-02-12T19:44:15.360Z,85.36
2023-02-12T19:46:43.694Z,85.42
2023-02-12T19:49:28.045Z,85.41
2023-02-12T19:51:54.860Z,85.21
2023-02-12T19:54:23.074Z,85.58
2023-02-12T19:56:52.298Z,86.01
2023-02-12T19:59:21.497Z,85.93
2023-02-12T20:01:48.938Z,86.35
2023-02-12T20:04:23.167Z,86.70
2023-02-12T20:06:52.938Z,86.82
2023-02-12T20:09:21.026Z,86.91
2023-02-12T20:11:47.892Z,87.07
2023-02-12T20:14:15.168Z,87.23
2023-02-12T20:16:44.248Z,87.23
2023-02-12T20:19:15.603Z,87.40
2023-02-12T20:21:43.581Z,87.40
2023-02-12T20:24:10.560Z,87.39
2023-02-12T20:26:37.818Z,87.48
2023-02-12T20:29:05.517Z,87.83
2023-02-12T20:31:35.852Z,87.99
2023-02-12T20:34:06.542Z,88.07
2023-02-12T20:36:36.445Z,88.25
2023-02-12T20:39:05.163Z,88.40
2023-02-12T20:41:34.339Z,88.33
2023-02-12T20:44:01.438Z,88.48
2023-02-12T20:46:28.195Z,88.25
2023-02-12T20:48:59.738Z,88.18
2023-02-12T20:51:27.365Z,88.37
2023-02-12T20:53:55.023Z,87.97
2023-02-12T20:56:25.052Z,87.99
2023-02-12T20:58:53.068Z,88.41
2023-02-12T21:01:45.024Z,88.63
2023-02-12T21:04:16.002Z,88.57
2023-02-12T21:06:44.046Z,88.54
2023-02-12T21:09:13.952Z,88.54
2023-02-12T21:11:44.622Z,88.56
2023-02-12T21:14:23.221Z,88.72
2023-02-12T21:16:53.703Z,88.84
2023-02-12T21:19:21.139Z,88.87
2023-02-12T21:21:48.066Z,88.93
2023-02-12T21:24:19.535Z,89.02
2023-02-12T21:26:46.406Z,89.22
2023-02-12T21:29:13.886Z,89.42
2023-02-12T21:31:43.096Z,89.55
2023-02-12T21:34:13.719Z,89.78
2023-02-12T21:36:42.399Z,89.95
2023-02-12T21:39:12.562Z,90.18
2023-02-12T21:41:41.168Z,90.30
2023-02-12T21:44:11.756Z,90.52
2023-02-12T21:46:39.334Z,90.76
2023-02-12T21:49:07.491Z,91.11
2023-02-12T21:51:40.602Z,91.38
2023-02-12T21:54:10.137Z,91.54
2023-02-12T21:56:38.496Z,91.76
2023-02-12T21:59:10.800Z,91.98
2023-02-12T22:01:42.073Z,92.20
2023-02-12T22:04:09.545Z,92.56
2023-02-12T22:06:38.506Z,92.79
2023-02-12T22:09:07.466Z,92.85
2023-02-12T22:11:36.164Z,92.93
2023-02-12T22:14:04.394Z,92.85
2023-02-12T22:16:31.512Z,93.02
2023-02-12T22:19:01.161Z,93.15
2023-02-12T22:21:31.003Z,93.17
2023-02-12T22:24:03.948Z,93.26
2023-02-12T22:26:32.408Z,93.23
2023-02-12T22:29:02.567Z,93.21
2023-02-12T22:31:32.262Z,93.25
2023-02-12T22:34:02.272Z,93.36
2023-02-12T22:36:29.674Z,93.44
2023-02-12T22:39:00.310Z,93.39
2023-02-12T22:41:28.387Z,93.48
2023-02-12T22:43:58.446Z,93.60
2023-02-12T22:46:25.432Z,93.57
2023-02-12T22:48:52.266Z,93.65
2023-02-12T22:51:25.310Z,93.63
2023-02-12T22:53:52.196Z,93.70
2023-02-12T22:56:19.433Z,93.78
2023-02-12T22:58:47.215Z,93.87
2023-02-12T23:01:16.873Z,93.88
2023-02-12T23:03:45.084Z,94.03
2023-02-12T23:06:15.009Z,94.11
2023-02-12T23:08:42.250Z,94.11
2023-02-12T23:11:09.395Z,94.10
2023-02-12T23:13:36.404Z,94.14
2023-02-12T23:16:04.007Z,94.11
2023-02-12T23:18:31.398Z,94.05
2023-02-12T23:20:58.926Z,94.01
2023-02-12T23:23:25.856Z,93.96
2023-02-12T23:25:54.020Z,94.02
2023-02-12T23:28:22.035Z,93.97
2023-02-12T23:30:50.588Z,93.90
2023-02-12T23:33:18.744Z,93.94
2023-02-12T23:35:46.198Z,93.91
2023-02-12T23:38:12.820Z,93.85
2023-02-12T23:40:41.284Z,93.83
2023-02-12T23:43:08.492Z,93.84
2023-02-12T23:45:35.292Z,93.83
2023-02-12T23:48:02.096Z,93.77
2023-02-12T23:50:29.051Z,93.70
2023-02-12T23:52:55.655Z,93.70
2023-02-12T23:55:22.470Z,93.65
2023-02-12T23:57:49.922Z,93.59
